sensor_id;sensor_type;location;lat;lon;timestamp;P1;durP1;ratioP1;P2;durP2;ratioP2
12908;SDS011;6522;49.622;6.126;2022-07-29T00:01:57;15.65;;;14.63;;
12908;SDS011;6522;49.622;6.126;2022-07-29T00:04:44;15.55;;;14.45;;
12908;SDS011;6522;49.622;6.126;2022-07-29T00:07:31;18.30;;;17.20;;
12908;SDS011;6522;49.622;6.126;2022-07-29T00:10:17;15.10;;;14.30;;
12908;SDS011;6522;49.622;6.126;2022-07-29T00:13:04;15.23;;;14.13;;
12908;SDS011;6522;49.622;6.126;2022-07-29T00:15:51;17.63;;;16.77;;
12908;SDS011;6522;49.622;6.126;2022-07-29T00:18:38;15.73;;;14.73;;
12908;SDS011;6522;49.622;6.126;2022-07-29T00:21:24;15.18;;;14.27;;
12908;SDS011;6522;49.622;6.126;2022-07-29T00:24:11;18.37;;;17.43;;
12908;SDS011;6522;49.622;6.126;2022-07-29T00:26:58;15.45;;;14.35;;
12908;SDS011;6522;49.622;6.126;2022-07-29T00:29:45;15.10;;;13.90;;
12908;SDS011;6522;49.622;6.126;2022-07-29T00:32:31;14.90;;;13.93;;
12908;SDS011;6522;49.622;6.126;2022-07-29T00:35:18;18.70;;;17.70;;
12908;SDS011;6522;49.622;6.126;2022-07-29T00:38:23;14.57;;;13.57;;
12908;SDS011;6522;49.622;6.126;2022-07-29T00:41:11;14.20;;;13.23;;
12908;SDS011;6522;49.622;6.126;2022-07-29T00:43:57;17.07;;;15.97;;
12908;SDS011;6522;49.622;6.126;2022-07-29T00:46:44;14.45;;;13.35;;
12908;SDS011;6522;49.622;6.126;2022-07-29T00:49:31;14.20;;;13.30;;
12908;SDS011;6522;49.622;6.126;2022-07-29T00:52:18;15.97;;;15.17;;
12908;SDS011;6522;49.622;6.126;2022-07-29T00:55:05;13.95;;;13.15;;
12908;SDS011;6522;49.622;6.126;2022-07-29T00:57:51;14.20;;;13.40;;
12908;SDS011;6522;49.622;6.126;2022-07-29T01:00:38;16.77;;;15.97;;
12908;SDS011;6522;49.622;6.126;2022-07-29T01:03:25;15.02;;;14.13;;
12908;SDS011;6522;49.622;6.126;2022-07-29T01:06:11;14.10;;;13.30;;
12908;SDS011;6522;49.622;6.126;2022-07-29T01:08:58;16.60;;;15.70;;
12908;SDS011;6522;49.622;6.126;2022-07-29T01:11:45;14.60;;;13.80;;
12908;SDS011;6522;49.622;6.126;2022-07-29T01:14:32;14.45;;;13.55;;
12908;SDS011;6522;49.622;6.126;2022-07-29T01:17:30;17.20;;;16.20;;
12908;SDS011;6522;49.622;6.126;2022-07-29T01:23:20;14.77;;;13.77;;
12908;SDS011;6522;49.622;6.126;2022-07-29T01:26:22;14.68;;;13.57;;
12908;SDS011;6522;49.622;6.126;2022-07-29T01:31:55;15.00;;;14.10;;
12908;SDS011;6522;49.622;6.126;2022-07-29T01:34:51;14.30;;;13.40;;
12908;SDS011;6522;49.622;6.126;2022-07-29T01:37:43;16.67;;;15.73;;
12908;SDS011;6522;49.622;6.126;2022-07-29T01:40:33;13.70;;;12.90;;
12908;SDS011;6522;49.622;6.126;2022-07-29T01:43:19;13.30;;;12.40;;
12908;SDS011;6522;49.622;6.126;2022-07-29T01:46:06;16.50;;;15.60;;
12908;SDS011;6522;49.622;6.126;2022-07-29T01:49:06;13.68;;;12.88;;
12908;SDS011;6522;49.622;6.126;2022-07-29T01:51:52;13.40;;;12.50;;
12908;SDS011;6522;49.622;6.126;2022-07-29T01:54:45;16.13;;;14.90;;
12908;SDS011;6522;49.622;6.126;2022-07-29T01:57:31;14.00;;;13.10;;
12908;SDS011;6522;49.622;6.126;2022-07-29T02:00:17;14.15;;;13.02;;
12908;SDS011;6522;49.622;6.126;2022-07-29T02:03:05;15.67;;;14.87;;
12908;SDS011;6522;49.622;6.126;2022-07-29T02:05:51;13.15;;;12.05;;
12908;SDS011;6522;49.622;6.126;2022-07-29T02:08:37;12.85;;;12.00;;
12908;SDS011;6522;49.622;6.126;2022-07-29T02:11:24;15.63;;;14.80;;
12908;SDS011;6522;49.622;6.126;2022-07-29T02:14:11;13.40;;;12.40;;
12908;SDS011;6522;49.622;6.126;2022-07-29T02:16:58;12.85;;;11.90;;
12908;SDS011;6522;49.622;6.126;2022-07-29T02:19:44;15.53;;;14.63;;
12908;SDS011;6522;49.622;6.126;2022-07-29T02:22:33;12.82;;;11.93;;
12908;SDS011;6522;49.622;6.126;2022-07-29T02:25:18;13.30;;;12.30;;
12908;SDS011;6522;49.622;6.126;2022-07-29T02:28:05;16.37;;;15.37;;
12908;SDS011;6522;49.622;6.126;2022-07-29T02:30:52;13.80;;;12.90;;
12908;SDS011;6522;49.622;6.126;2022-07-29T02:33:39;14.32;;;13.50;;
12908;SDS011;6522;49.622;6.126;2022-07-29T02:36:25;13.25;;;12.50;;
12908;SDS011;6522;49.622;6.126;2022-07-29T02:39:13;15.80;;;14.90;;
12908;SDS011;6522;49.622;6.126;2022-07-29T02:42:03;13.90;;;12.60;;
12908;SDS011;6522;49.622;6.126;2022-07-29T02:44:46;14.32;;;13.32;;
12908;SDS011;6522;49.622;6.126;2022-07-29T02:47:38;21.57;;;20.47;;
12908;SDS011;6522;49.622;6.126;2022-07-29T02:50:28;13.23;;;12.43;;
12908;SDS011;6522;49.622;6.126;2022-07-29T02:56:20;14.20;;;13.40;;
12908;SDS011;6522;49.622;6.126;2022-07-29T02:58:53;12.30;;;11.50;;
12908;SDS011;6522;49.622;6.126;2022-07-29T03:01:39;12.30;;;11.30;;
12908;SDS011;6522;49.622;6.126;2022-07-29T03:04:24;15.33;;;13.93;;
12908;SDS011;6522;49.622;6.126;2022-07-29T03:07:11;12.35;;;11.55;;
12908;SDS011;6522;49.622;6.126;2022-07-29T03:09:57;12.45;;;11.48;;
12908;SDS011;6522;49.622;6.126;2022-07-29T03:12:44;14.60;;;13.83;;
12908;SDS011;6522;49.622;6.126;2022-07-29T03:15:31;12.40;;;11.50;;
12908;SDS011;6522;49.622;6.126;2022-07-29T03:18:18;12.43;;;11.63;;
12908;SDS011;6522;49.622;6.126;2022-07-29T03:21:05;14.77;;;13.80;;
12908;SDS011;6522;49.622;6.126;2022-07-29T03:23:52;12.35;;;11.50;;
12908;SDS011;6522;49.622;6.126;2022-07-29T03:26:38;12.30;;;11.40;;
12908;SDS011;6522;49.622;6.126;2022-07-29T03:29:25;14.67;;;13.67;;
12908;SDS011;6522;49.622;6.126;2022-07-29T03:32:12;12.55;;;11.50;;
12908;SDS011;6522;49.622;6.126;2022-07-29T03:34:59;14.90;;;14.00;;
12908;SDS011;6522;49.622;6.126;2022-07-29T03:37:46;11.80;;;10.90;;
12908;SDS011;6522;49.622;6.126;2022-07-29T03:40:45;14.20;;;13.40;;
12908;SDS011;6522;49.622;6.126;2022-07-29T03:43:30;12.48;;;11.68;;
12908;SDS011;6522;49.622;6.126;2022-07-29T03:46:15;12.40;;;11.50;;
12908;SDS011;6522;49.622;6.126;2022-07-29T03:49:02;14.23;;;13.40;;
12908;SDS011;6522;49.622;6.126;2022-07-29T03:51:49;11.93;;;11.12;;
12908;SDS011;6522;49.622;6.126;2022-07-29T03:54:36;11.80;;;11.00;;
12908;SDS011;6522;49.622;6.126;2022-07-29T03:57:27;12.73;;;11.73;;
12908;SDS011;6522;49.622;6.126;2022-07-29T04:00:12;14.18;;;13.38;;
12908;SDS011;6522;49.622;6.126;2022-07-29T04:02:59;12.43;;;11.32;;
12908;SDS011;6522;49.622;6.126;2022-07-29T04:05:57;14.00;;;13.20;;
12908;SDS011;6522;49.622;6.126;2022-07-29T04:08:33;13.50;;;12.70;;
12908;SDS011;6522;49.622;6.126;2022-07-29T04:11:19;13.80;;;13.00;;
12908;SDS011;6522;49.622;6.126;2022-07-29T04:14:06;13.50;;;12.50;;
12908;SDS011;6522;49.622;6.126;2022-07-29T04:16:53;12.95;;;12.02;;
12908;SDS011;6522;49.622;6.126;2022-07-29T04:19:39;13.25;;;12.45;;
12908;SDS011;6522;49.622;6.126;2022-07-29T04:22:26;13.05;;;12.25;;
12908;SDS011;6522;49.622;6.126;2022-07-29T04:25:13;13.00;;;12.20;;
12908;SDS011;6522;49.622;6.126;2022-07-29T04:28:00;12.73;;;11.88;;
12908;SDS011;6522;49.622;6.126;2022-07-29T04:30:47;11.40;;;10.40;;
12908;SDS011;6522;49.622;6.126;2022-07-29T04:33:34;13.55;;;12.35;;
12908;SDS011;6522;49.622;6.126;2022-07-29T04:36:20;13.52;;;12.60;;
12908;SDS011;6522;49.622;6.126;2022-07-29T04:39:07;12.82;;;11.63;;
12908;SDS011;6522;49.622;6.126;2022-07-29T04:41:54;12.30;;;11.50;;
12908;SDS011;6522;49.622;6.126;2022-07-29T04:44:41;12.30;;;11.40;;
12908;SDS011;6522;49.622;6.126;2022-07-29T04:47:27;12.13;;;11.25;;
12908;SDS011;6522;49.622;6.126;2022-07-29T04:50:14;12.90;;;11.80;;
12908;SDS011;6522;49.622;6.126;2022-07-29T04:53:01;12.30;;;11.50;;
12908;SDS011;6522;49.622;6.126;2022-07-29T04:55:48;12.50;;;11.48;;
12908;SDS011;6522;49.622;6.126;2022-07-29T04:58:35;13.18;;;12.18;;
12908;SDS011;6522;49.622;6.126;2022-07-29T05:01:21;12.70;;;11.80;;
12908;SDS011;6522;49.622;6.126;2022-07-29T05:04:08;12.63;;;11.82;;
12908;SDS011;6522;49.622;6.126;2022-07-29T05:06:55;12.32;;;11.40;;
12908;SDS011;6522;49.622;6.126;2022-07-29T05:09:42;13.10;;;12.02;;
12908;SDS011;6522;49.622;6.126;2022-07-29T05:12:29;12.95;;;11.85;;
12908;SDS011;6522;49.622;6.126;2022-07-29T05:15:15;11.80;;;10.88;;
12908;SDS011;6522;49.622;6.126;2022-07-29T05:18:02;12.35;;;11.55;;
12908;SDS011;6522;49.622;6.126;2022-07-29T05:20:49;14.40;;;13.40;;
12908;SDS011;6522;49.622;6.126;2022-07-29T05:23:36;12.70;;;11.90;;
12908;SDS011;6522;49.622;6.126;2022-07-29T05:26:23;12.65;;;11.65;;
12908;SDS011;6522;49.622;6.126;2022-07-29T05:29:10;14.07;;;13.07;;
12908;SDS011;6522;49.622;6.126;2022-07-29T05:31:56;13.10;;;12.10;;
12908;SDS011;6522;49.622;6.126;2022-07-29T05:34:43;11.55;;;10.60;;
12908;SDS011;6522;49.622;6.126;2022-07-29T05:37:30;13.38;;;12.48;;
12908;SDS011;6522;49.622;6.126;2022-07-29T05:40:16;26.75;;;12.43;;
12908;SDS011;6522;49.622;6.126;2022-07-29T05:43:03;13.62;;;12.70;;
12908;SDS011;6522;49.622;6.126;2022-07-29T05:45:50;12.73;;;11.65;;
12908;SDS011;6522;49.622;6.126;2022-07-29T05:48:36;12.15;;;11.25;;
12908;SDS011;6522;49.622;6.126;2022-07-29T05:51:23;14.47;;;13.37;;
12908;SDS011;6522;49.622;6.126;2022-07-29T05:54:10;12.40;;;11.40;;
12908;SDS011;6522;49.622;6.126;2022-07-29T05:56:57;15.80;;;14.20;;
12908;SDS011;6522;49.622;6.126;2022-07-29T05:59:43;14.07;;;13.27;;
12908;SDS011;6522;49.622;6.126;2022-07-29T06:02:30;15.02;;;14.02;;
12908;SDS011;6522;49.622;6.126;2022-07-29T06:05:17;12.98;;;12.05;;
12908;SDS011;6522;49.622;6.126;2022-07-29T06:08:03;14.10;;;12.93;;
12908;SDS011;6522;49.622;6.126;2022-07-29T06:10:50;12.27;;;11.38;;
12908;SDS011;6522;49.622;6.126;2022-07-29T06:13:37;15.07;;;13.97;;
12908;SDS011;6522;49.622;6.126;2022-07-29T06:16:24;13.05;;;11.95;;
12908;SDS011;6522;49.622;6.126;2022-07-29T06:19:11;14.77;;;13.87;;
12908;SDS011;6522;49.622;6.126;2022-07-29T06:21:58;13.00;;;12.20;;
12908;SDS011;6522;49.622;6.126;2022-07-29T06:24:45;13.20;;;12.30;;
12908;SDS011;6522;49.622;6.126;2022-07-29T06:27:31;14.23;;;13.13;;
12908;SDS011;6522;49.622;6.126;2022-07-29T06:30:18;15.30;;;14.00;;
12908;SDS011;6522;49.622;6.126;2022-07-29T06:33:05;16.20;;;15.10;;
12908;SDS011;6522;49.622;6.126;2022-07-29T06:35:52;15.45;;;14.25;;
12908;SDS011;6522;49.622;6.126;2022-07-29T06:38:39;15.53;;;14.43;;
12908;SDS011;6522;49.622;6.126;2022-07-29T06:41:26;16.77;;;15.87;;
12908;SDS011;6522;49.622;6.126;2022-07-29T06:44:13;16.17;;;15.13;;
12908;SDS011;6522;49.622;6.126;2022-07-29T06:47:00;15.98;;;14.70;;
12908;SDS011;6522;49.622;6.126;2022-07-29T06:49:47;17.47;;;16.37;;
12908;SDS011;6522;49.622;6.126;2022-07-29T06:52:34;15.25;;;14.25;;
12908;SDS011;6522;49.622;6.126;2022-07-29T06:55:21;15.40;;;14.40;;
12908;SDS011;6522;49.622;6.126;2022-07-29T06:58:07;18.93;;;17.80;;
12908;SDS011;6522;49.622;6.126;2022-07-29T07:00:55;16.77;;;15.45;;
12908;SDS011;6522;49.622;6.126;2022-07-29T07:03:41;16.48;;;15.23;;
12908;SDS011;6522;49.622;6.126;2022-07-29T07:06:27;18.30;;;17.10;;
12908;SDS011;6522;49.622;6.126;2022-07-29T07:09:14;15.93;;;14.90;;
12908;SDS011;6522;49.622;6.126;2022-07-29T07:12:01;16.10;;;15.00;;
12908;SDS011;6522;49.622;6.126;2022-07-29T07:14:48;17.57;;;16.47;;
12908;SDS011;6522;49.622;6.126;2022-07-29T07:17:34;15.60;;;14.60;;
12908;SDS011;6522;49.622;6.126;2022-07-29T07:20:22;16.37;;;15.10;;
12908;SDS011;6522;49.622;6.126;2022-07-29T07:23:08;16.50;;;15.30;;
12908;SDS011;6522;49.622;6.126;2022-07-29T07:25:55;20.33;;;18.83;;
12908;SDS011;6522;49.622;6.126;2022-07-29T07:28:42;17.45;;;16.15;;
12908;SDS011;6522;49.622;6.126;2022-07-29T07:31:29;16.30;;;15.00;;
12908;SDS011;6522;49.622;6.126;2022-07-29T07:34:16;18.63;;;17.17;;
12908;SDS011;6522;49.622;6.126;2022-07-29T07:37:02;15.90;;;14.70;;
12908;SDS011;6522;49.622;6.126;2022-07-29T07:39:49;16.40;;;15.20;;
12908;SDS011;6522;49.622;6.126;2022-07-29T07:42:36;16.83;;;15.52;;
12908;SDS011;6522;49.622;6.126;2022-07-29T07:45:23;19.10;;;17.90;;
12908;SDS011;6522;49.622;6.126;2022-07-29T07:48:10;16.40;;;15.30;;
12908;SDS011;6522;49.622;6.126;2022-07-29T07:50:56;16.75;;;15.35;;
12908;SDS011;6522;49.622;6.126;2022-07-29T07:53:43;18.40;;;17.30;;
12908;SDS011;6522;49.622;6.126;2022-07-29T07:56:30;17.23;;;16.02;;
12908;SDS011;6522;49.622;6.126;2022-07-29T07:59:16;18.37;;;17.30;;
12908;SDS011;6522;49.622;6.126;2022-07-29T08:02:04;17.10;;;16.10;;
12908;SDS011;6522;49.622;6.126;2022-07-29T08:04:50;19.70;;;18.50;;
12908;SDS011;6522;49.622;6.126;2022-07-29T08:07:37;19.93;;;18.47;;
12908;SDS011;6522;49.622;6.126;2022-07-29T08:10:24;19.30;;;18.00;;
12908;SDS011;6522;49.622;6.126;2022-07-29T08:13:29;19.50;;;18.30;;
12908;SDS011;6522;49.622;6.126;2022-07-29T08:16:16;19.97;;;18.13;;
12908;SDS011;6522;49.622;6.126;2022-07-29T08:19:02;18.93;;;17.83;;
12908;SDS011;6522;49.622;6.126;2022-07-29T08:21:50;20.93;;;19.13;;
12908;SDS011;6522;49.622;6.126;2022-07-29T08:24:36;19.40;;;18.17;;
12908;SDS011;6522;49.622;6.126;2022-07-29T08:27:29;19.47;;;18.37;;
12908;SDS011;6522;49.622;6.126;2022-07-29T08:30:16;19.23;;;18.13;;
12908;SDS011;6522;49.622;6.126;2022-07-29T08:33:03;19.67;;;18.40;;
12908;SDS011;6522;49.622;6.126;2022-07-29T08:35:50;19.80;;;18.60;;
12908;SDS011;6522;49.622;6.126;2022-07-29T08:38:36;19.83;;;18.73;;
12908;SDS011;6522;49.622;6.126;2022-07-29T08:41:23;17.30;;;16.20;;
12908;SDS011;6522;49.622;6.126;2022-07-29T08:44:10;17.30;;;16.12;;
12908;SDS011;6522;49.622;6.126;2022-07-29T08:46:57;17.55;;;16.25;;
12908;SDS011;6522;49.622;6.126;2022-07-29T08:49:44;20.70;;;19.50;;
12908;SDS011;6522;49.622;6.126;2022-07-29T08:52:30;20.43;;;19.33;;
12908;SDS011;6522;49.622;6.126;2022-07-29T08:55:17;21.20;;;19.60;;
12908;SDS011;6522;49.622;6.126;2022-07-29T08:58:04;20.93;;;19.13;;
12908;SDS011;6522;49.622;6.126;2022-07-29T09:00:54;19.60;;;18.50;;
12908;SDS011;6522;49.622;6.126;2022-07-29T09:03:38;17.70;;;16.70;;
12908;SDS011;6522;49.622;6.126;2022-07-29T09:06:25;18.93;;;17.70;;
12908;SDS011;6522;49.622;6.126;2022-07-29T09:09:12;21.33;;;19.90;;
12908;SDS011;6522;49.622;6.126;2022-07-29T09:11:58;20.40;;;19.20;;
12908;SDS011;6522;49.622;6.126;2022-07-29T09:14:45;20.10;;;19.10;;
12908;SDS011;6522;49.622;6.126;2022-07-29T09:17:41;21.20;;;20.03;;
12908;SDS011;6522;49.622;6.126;2022-07-29T09:20:27;21.13;;;19.93;;
12908;SDS011;6522;49.622;6.126;2022-07-29T09:23:14;20.53;;;19.40;;
12908;SDS011;6522;49.622;6.126;2022-07-29T09:26:04;19.83;;;18.90;;
12908;SDS011;6522;49.622;6.126;2022-07-29T09:28:49;19.37;;;18.37;;
12908;SDS011;6522;49.622;6.126;2022-07-29T09:31:37;19.73;;;18.47;;
12908;SDS011;6522;49.622;6.126;2022-07-29T09:34:24;19.67;;;18.67;;
12908;SDS011;6522;49.622;6.126;2022-07-29T09:37:10;20.03;;;18.77;;
12908;SDS011;6522;49.622;6.126;2022-07-29T09:39:56;19.67;;;18.67;;
12908;SDS011;6522;49.622;6.126;2022-07-29T09:42:43;19.30;;;18.30;;
12908;SDS011;6522;49.622;6.126;2022-07-29T09:45:30;19.60;;;18.40;;
12908;SDS011;6522;49.622;6.126;2022-07-29T09:48:17;19.67;;;18.47;;
12908;SDS011;6522;49.622;6.126;2022-07-29T09:51:03;19.20;;;18.20;;
12908;SDS011;6522;49.622;6.126;2022-07-29T09:53:50;17.40;;;16.40;;
12908;SDS011;6522;49.622;6.126;2022-07-29T09:56:40;20.17;;;18.97;;
12908;SDS011;6522;49.622;6.126;2022-07-29T09:59:27;19.53;;;18.43;;
12908;SDS011;6522;49.622;6.126;2022-07-29T10:02:13;18.40;;;17.50;;
12908;SDS011;6522;49.622;6.126;2022-07-29T10:05:00;19.40;;;18.40;;
12908;SDS011;6522;49.622;6.126;2022-07-29T10:07:50;20.20;;;19.00;;
12908;SDS011;6522;49.622;6.126;2022-07-29T10:10:38;19.80;;;18.80;;
12908;SDS011;6522;49.622;6.126;2022-07-29T10:13:23;20.20;;;19.10;;
12908;SDS011;6522;49.622;6.126;2022-07-29T10:16:10;19.70;;;18.70;;
12908;SDS011;6522;49.622;6.126;2022-07-29T10:18:56;19.87;;;18.77;;
12908;SDS011;6522;49.622;6.126;2022-07-29T10:21:43;19.37;;;18.17;;
12908;SDS011;6522;49.622;6.126;2022-07-29T10:24:30;19.40;;;18.00;;
12908;SDS011;6522;49.622;6.126;2022-07-29T10:27:16;19.33;;;18.10;;
12908;SDS011;6522;49.622;6.126;2022-07-29T10:30:03;18.93;;;17.70;;
12908;SDS011;6522;49.622;6.126;2022-07-29T10:33:05;19.10;;;17.90;;
12908;SDS011;6522;49.622;6.126;2022-07-29T10:36:04;18.80;;;17.83;;
12908;SDS011;6522;49.622;6.126;2022-07-29T10:44:49;19.70;;;18.30;;
12908;SDS011;6522;49.622;6.126;2022-07-29T10:47:36;18.80;;;17.80;;
12908;SDS011;6522;49.622;6.126;2022-07-29T10:50:23;19.70;;;18.60;;
12908;SDS011;6522;49.622;6.126;2022-07-29T10:53:09;18.60;;;17.60;;
12908;SDS011;6522;49.622;6.126;2022-07-29T10:55:56;18.10;;;17.00;;
12908;SDS011;6522;49.622;6.126;2022-07-29T10:58:43;18.93;;;17.90;;
12908;SDS011;6522;49.622;6.126;2022-07-29T11:01:30;18.83;;;17.83;;
12908;SDS011;6522;49.622;6.126;2022-07-29T11:04:39;18.40;;;17.50;;
12908;SDS011;6522;49.622;6.126;2022-07-29T11:07:06;19.17;;;18.00;;
12908;SDS011;6522;49.622;6.126;2022-07-29T11:13:01;18.60;;;17.60;;
12908;SDS011;6522;49.622;6.126;2022-07-29T11:15:54;19.40;;;18.40;;
12908;SDS011;6522;49.622;6.126;2022-07-29T11:21:44;20.37;;;19.17;;
12908;SDS011;6522;49.622;6.126;2022-07-29T11:24:30;19.67;;;18.67;;
12908;SDS011;6522;49.622;6.126;2022-07-29T11:27:18;19.97;;;18.80;;
12908;SDS011;6522;49.622;6.126;2022-07-29T11:30:04;20.07;;;18.70;;
12908;SDS011;6522;49.622;6.126;2022-07-29T11:32:51;20.63;;;19.07;;
12908;SDS011;6522;49.622;6.126;2022-07-29T11:35:37;19.10;;;18.20;;
12908;SDS011;6522;49.622;6.126;2022-07-29T11:38:25;18.97;;;18.07;;
12908;SDS011;6522;49.622;6.126;2022-07-29T11:44:04;18.17;;;17.23;;
12908;SDS011;6522;49.622;6.126;2022-07-29T11:46:50;18.50;;;17.50;;
12908;SDS011;6522;49.622;6.126;2022-07-29T11:49:37;18.07;;;17.17;;
12908;SDS011;6522;49.622;6.126;2022-07-29T11:52:32;19.43;;;18.00;;
12908;SDS011;6522;49.622;6.126;2022-07-29T11:55:11;18.67;;;17.47;;
12908;SDS011;6522;49.622;6.126;2022-07-29T11:57:58;18.83;;;17.73;;
12908;SDS011;6522;49.622;6.126;2022-07-29T12:00:46;19.20;;;18.20;;
12908;SDS011;6522;49.622;6.126;2022-07-29T12:03:31;20.20;;;18.93;;
12908;SDS011;6522;49.622;6.126;2022-07-29T12:06:17;17.33;;;16.17;;
12908;SDS011;6522;49.622;6.126;2022-07-29T12:09:09;16.80;;;15.90;;
12908;SDS011;6522;49.622;6.126;2022-07-29T12:11:56;18.97;;;17.73;;
12908;SDS011;6522;49.622;6.126;2022-07-29T12:14:43;19.13;;;18.03;;
12908;SDS011;6522;49.622;6.126;2022-07-29T12:20:26;20.10;;;19.00;;
12908;SDS011;6522;49.622;6.126;2022-07-29T12:23:12;20.10;;;19.00;;
12908;SDS011;6522;49.622;6.126;2022-07-29T12:25:59;20.33;;;19.10;;
12908;SDS011;6522;49.622;6.126;2022-07-29T12:28:45;19.53;;;18.43;;
12908;SDS011;6522;49.622;6.126;2022-07-29T12:31:32;19.50;;;18.40;;
12908;SDS011;6522;49.622;6.126;2022-07-29T12:34:20;18.97;;;17.97;;
12908;SDS011;6522;49.622;6.126;2022-07-29T12:37:06;18.20;;;17.30;;
12908;SDS011;6522;49.622;6.126;2022-07-29T12:39:52;18.80;;;17.80;;
12908;SDS011;6522;49.622;6.126;2022-07-29T12:42:39;19.03;;;17.83;;
12908;SDS011;6522;49.622;6.126;2022-07-29T12:45:29;17.17;;;15.98;;
12908;SDS011;6522;49.622;6.126;2022-07-29T12:48:16;19.00;;;18.00;;
12908;SDS011;6522;49.622;6.126;2022-07-29T12:51:02;18.87;;;17.70;;
12908;SDS011;6522;49.622;6.126;2022-07-29T12:54:03;19.10;;;17.90;;
12908;SDS011;6522;49.622;6.126;2022-07-29T12:56:57;17.08;;;16.08;;
12908;SDS011;6522;49.622;6.126;2022-07-29T12:59:35;19.13;;;17.93;;
12908;SDS011;6522;49.622;6.126;2022-07-29T13:02:22;19.17;;;18.00;;
12908;SDS011;6522;49.622;6.126;2022-07-29T13:05:09;19.47;;;18.50;;
12908;SDS011;6522;49.622;6.126;2022-07-29T13:07:55;19.57;;;18.57;;
12908;SDS011;6522;49.622;6.126;2022-07-29T13:10:42;19.60;;;18.60;;
12908;SDS011;6522;49.622;6.126;2022-07-29T13:13:29;19.63;;;18.60;;
12908;SDS011;6522;49.622;6.126;2022-07-29T13:16:15;19.47;;;18.33;;
12908;SDS011;6522;49.622;6.126;2022-07-29T13:19:09;20.03;;;18.60;;
12908;SDS011;6522;49.622;6.126;2022-07-29T13:21:55;19.57;;;18.57;;
12908;SDS011;6522;49.622;6.126;2022-07-29T13:25:01;20.17;;;18.43;;
12908;SDS011;6522;49.622;6.126;2022-07-29T13:27:32;19.17;;;18.10;;
12908;SDS011;6522;49.622;6.126;2022-07-29T13:30:18;18.80;;;17.70;;
12908;SDS011;6522;49.622;6.126;2022-07-29T13:33:05;19.53;;;18.43;;
12908;SDS011;6522;49.622;6.126;2022-07-29T13:35:52;19.40;;;18.10;;
12908;SDS011;6522;49.622;6.126;2022-07-29T13:38:39;19.37;;;18.37;;
12908;SDS011;6522;49.622;6.126;2022-07-29T13:41:26;19.63;;;18.43;;
12908;SDS011;6522;49.622;6.126;2022-07-29T13:44:13;20.10;;;18.70;;
12908;SDS011;6522;49.622;6.126;2022-07-29T13:47:00;18.70;;;17.50;;
12908;SDS011;6522;49.622;6.126;2022-07-29T13:49:47;19.00;;;18.00;;
12908;SDS011;6522;49.622;6.126;2022-07-29T13:52:34;18.93;;;17.93;;
12908;SDS011;6522;49.622;6.126;2022-07-29T13:55:21;20.10;;;19.10;;
12908;SDS011;6522;49.622;6.126;2022-07-29T13:58:07;20.00;;;19.10;;
12908;SDS011;6522;49.622;6.126;2022-07-29T14:00:55;19.83;;;18.83;;
12908;SDS011;6522;49.622;6.126;2022-07-29T14:03:41;21.20;;;20.20;;
12908;SDS011;6522;49.622;6.126;2022-07-29T14:06:28;21.10;;;19.97;;
12908;SDS011;6522;49.622;6.126;2022-07-29T14:09:14;20.70;;;19.70;;
12908;SDS011;6522;49.622;6.126;2022-07-29T14:12:01;20.43;;;19.40;;
12908;SDS011;6522;49.622;6.126;2022-07-29T14:14:48;21.33;;;19.93;;
12908;SDS011;6522;49.622;6.126;2022-07-29T14:17:34;19.73;;;18.73;;
12908;SDS011;6522;49.622;6.126;2022-07-29T14:20:21;19.20;;;18.10;;
12908;SDS011;6522;49.622;6.126;2022-07-29T14:23:08;19.40;;;18.40;;
12908;SDS011;6522;49.622;6.126;2022-07-29T14:25:55;17.87;;;16.87;;
12908;SDS011;6522;49.622;6.126;2022-07-29T14:28:42;19.50;;;18.50;;
12908;SDS011;6522;49.622;6.126;2022-07-29T14:31:29;20.20;;;19.20;;
12908;SDS011;6522;49.622;6.126;2022-07-29T14:34:16;19.73;;;18.73;;
12908;SDS011;6522;49.622;6.126;2022-07-29T14:37:03;19.87;;;18.83;;
12908;SDS011;6522;49.622;6.126;2022-07-29T14:39:50;20.27;;;19.07;;
12908;SDS011;6522;49.622;6.126;2022-07-29T14:42:37;22.00;;;20.70;;
12908;SDS011;6522;49.622;6.126;2022-07-29T14:45:23;18.98;;;17.87;;
12908;SDS011;6522;49.622;6.126;2022-07-29T14:48:10;22.50;;;20.77;;
12908;SDS011;6522;49.622;6.126;2022-07-29T14:50:56;19.12;;;17.92;;
12908;SDS011;6522;49.622;6.126;2022-07-29T14:53:43;22.10;;;20.80;;
12908;SDS011;6522;49.622;6.126;2022-07-29T14:56:30;20.20;;;19.30;;
12908;SDS011;6522;49.622;6.126;2022-07-29T14:59:17;20.83;;;19.73;;
12908;SDS011;6522;49.622;6.126;2022-07-29T15:02:03;21.30;;;20.10;;
12908;SDS011;6522;49.622;6.126;2022-07-29T15:04:50;20.97;;;19.87;;
12908;SDS011;6522;49.622;6.126;2022-07-29T15:07:37;21.47;;;20.17;;
12908;SDS011;6522;49.622;6.126;2022-07-29T15:10:23;20.90;;;19.90;;
12908;SDS011;6522;49.622;6.126;2022-07-29T15:13:11;20.97;;;19.87;;
12908;SDS011;6522;49.622;6.126;2022-07-29T15:15:58;21.13;;;20.00;;
12908;SDS011;6522;49.622;6.126;2022-07-29T15:18:45;21.57;;;20.43;;
12908;SDS011;6522;49.622;6.126;2022-07-29T15:21:31;21.80;;;20.70;;
12908;SDS011;6522;49.622;6.126;2022-07-29T15:24:18;21.63;;;20.53;;
12908;SDS011;6522;49.622;6.126;2022-07-29T15:27:05;21.30;;;20.30;;
12908;SDS011;6522;49.622;6.126;2022-07-29T15:29:52;21.43;;;20.30;;
12908;SDS011;6522;49.622;6.126;2022-07-29T15:32:38;21.53;;;20.30;;
12908;SDS011;6522;49.622;6.126;2022-07-29T15:35:25;20.20;;;19.10;;
12908;SDS011;6522;49.622;6.126;2022-07-29T15:38:11;20.70;;;19.60;;
12908;SDS011;6522;49.622;6.126;2022-07-29T15:40:58;19.23;;;18.10;;
12908;SDS011;6522;49.622;6.126;2022-07-29T15:43:45;22.10;;;21.00;;
12908;SDS011;6522;49.622;6.126;2022-07-29T15:46:35;23.43;;;21.50;;
12908;SDS011;6522;49.622;6.126;2022-07-29T15:49:41;22.00;;;20.90;;
12908;SDS011;6522;49.622;6.126;2022-07-29T15:52:27;22.40;;;21.27;;
12908;SDS011;6522;49.622;6.126;2022-07-29T15:55:14;20.87;;;19.80;;
12908;SDS011;6522;49.622;6.126;2022-07-29T15:58:00;21.20;;;19.80;;
12908;SDS011;6522;49.622;6.126;2022-07-29T16:00:47;20.83;;;19.63;;
12908;SDS011;6522;49.622;6.126;2022-07-29T16:03:34;21.93;;;20.83;;
12908;SDS011;6522;49.622;6.126;2022-07-29T16:06:21;21.93;;;20.73;;
12908;SDS011;6522;49.622;6.126;2022-07-29T16:09:08;21.20;;;20.00;;
12908;SDS011;6522;49.622;6.126;2022-07-29T16:11:55;20.97;;;19.87;;
12908;SDS011;6522;49.622;6.126;2022-07-29T16:14:42;20.60;;;19.57;;
12908;SDS011;6522;49.622;6.126;2022-07-29T16:17:29;22.33;;;21.03;;
12908;SDS011;6522;49.622;6.126;2022-07-29T16:20:15;20.27;;;19.20;;
12908;SDS011;6522;49.622;6.126;2022-07-29T16:23:02;21.00;;;19.90;;
12908;SDS011;6522;49.622;6.126;2022-07-29T16:25:49;21.17;;;20.07;;
12908;SDS011;6522;49.622;6.126;2022-07-29T16:28:36;20.30;;;19.17;;
12908;SDS011;6522;49.622;6.126;2022-07-29T16:31:22;17.87;;;16.87;;
12908;SDS011;6522;49.622;6.126;2022-07-29T16:34:09;19.93;;;18.93;;
12908;SDS011;6522;49.622;6.126;2022-07-29T16:36:56;20.57;;;19.37;;
12908;SDS011;6522;49.622;6.126;2022-07-29T16:39:42;20.50;;;19.47;;
12908;SDS011;6522;49.622;6.126;2022-07-29T16:42:29;21.03;;;19.77;;
12908;SDS011;6522;49.622;6.126;2022-07-29T16:45:16;21.00;;;19.80;;
12908;SDS011;6522;49.622;6.126;2022-07-29T16:48:02;20.53;;;19.50;;
12908;SDS011;6522;49.622;6.126;2022-07-29T16:50:49;21.00;;;19.90;;
12908;SDS011;6522;49.622;6.126;2022-07-29T16:53:36;20.70;;;19.67;;
12908;SDS011;6522;49.622;6.126;2022-07-29T16:56:23;21.83;;;20.77;;
12908;SDS011;6522;49.622;6.126;2022-07-29T16:59:10;17.87;;;16.80;;